createdAt,value
2022-10-29T00:01:02.085Z,28.30
2022-10-29T00:03:29.590Z,28.48
2022-10-29T00:06:04.429Z,32.50
2022-10-29T00:08:33.659Z,35.53
2022-10-29T00:11:09.625Z,28.27
2022-10-29T00:13:37.828Z,38.65
2022-10-29T00:18:38.786Z,35.85
2022-10-29T00:21:11.263Z,47.05
2022-10-29T00:23:41.471Z,35.75
2022-10-29T00:26:09.580Z,40.70
2022-10-29T00:28:37.557Z,37.92
2022-10-29T00:31:14.056Z,39.90
2022-10-29T00:33:42.219Z,37.83
2022-10-29T00:36:18.654Z,33.08
2022-10-29T00:38:46.250Z,39.47
2022-10-29T00:41:18.365Z,41.97
2022-10-29T00:43:51.093Z,37.47
2022-10-29T00:46:27.906Z,40.05
2022-10-29T00:48:57.237Z,37.10
2022-10-29T00:51:25.941Z,33.17
2022-10-29T00:54:06.549Z,32.80
2022-10-29T00:56:38.225Z,34.30
2022-10-29T00:59:07.986Z,34.97
2022-10-29T01:01:36.609Z,37.10
2022-10-29T01:04:04.969Z,36.22
2022-10-29T01:06:33.808Z,39.53
2022-10-29T01:09:01.258Z,35.67
2022-10-29T01:12:01.058Z,30.55
2022-10-29T01:15:16.649Z,31.38
2022-10-29T01:18:08.794Z,40.47
2022-10-29T01:20:54.954Z,30.70
2022-10-29T01:23:44.370Z,40.10
2022-10-29T01:26:42.575Z,33.28
2022-10-29T01:29:28.730Z,32.28
2022-10-29T01:32:12.527Z,39.00
2022-10-29T01:35:20.164Z,38.30
2022-10-29T01:37:57.172Z,35.22
2022-10-29T01:40:30.282Z,27.63
2022-10-29T01:46:06.131Z,31.25
2022-10-29T01:48:39.180Z,30.58
2022-10-29T01:51:19.130Z,34.88
2022-10-29T01:53:46.885Z,34.70
2022-10-29T01:56:14.354Z,29.98
2022-10-29T01:58:47.021Z,37.40
2022-10-29T02:01:23.788Z,34.22
2022-10-29T02:04:29.015Z,30.60
2022-10-29T02:07:01.359Z,21.83
2022-10-29T02:09:40.155Z,28.67
2022-10-29T02:12:23.685Z,24.92
2022-10-29T02:14:58.618Z,30.55
2022-10-29T02:17:26.346Z,25.52
2022-10-29T02:19:53.825Z,24.50
2022-10-29T02:22:21.309Z,30.50
2022-10-29T02:24:48.780Z,27.27
2022-10-29T02:27:16.177Z,27.55
2022-10-29T02:29:43.707Z,25.60
2022-10-29T02:32:11.156Z,34.95
2022-10-29T02:34:38.581Z,30.58
2022-10-29T02:37:06.066Z,24.75
2022-10-29T02:39:33.546Z,35.30
2022-10-29T02:42:00.953Z,33.33
2022-10-29T02:44:28.459Z,28.65
2022-10-29T02:46:55.864Z,24.75
2022-10-29T02:49:23.365Z,25.67
2022-10-29T02:51:50.952Z,35.35
2022-10-29T02:54:18.466Z,24.38
2022-10-29T02:56:45.996Z,34.88
2022-10-29T02:59:13.418Z,33.28
2022-10-29T03:01:40.956Z,40.03
2022-10-29T03:04:10.045Z,34.42
2022-10-29T03:06:37.775Z,29.52
2022-10-29T03:09:05.231Z,35.80
2022-10-29T03:11:33.450Z,25.95
2022-10-29T03:16:28.185Z,37.25
2022-10-29T03:18:55.611Z,25.17
2022-10-29T03:21:23.084Z,35.15
2022-10-29T03:23:50.856Z,28.33
2022-10-29T03:26:18.230Z,30.38
2022-10-29T03:31:14.055Z,29.05
2022-10-29T03:33:41.515Z,31.93
2022-10-29T03:36:09.213Z,28.02
2022-10-29T03:38:36.702Z,27.23
2022-10-29T03:41:08.622Z,22.63
2022-10-29T03:43:37.482Z,25.27
2022-10-29T03:46:05.606Z,25.80
2022-10-29T03:48:33.296Z,20.65
2022-10-29T03:51:06.150Z,24.35
2022-10-29T03:53:35.611Z,27.30
2022-10-29T03:56:03.785Z,23.88
2022-10-29T03:58:31.325Z,29.88
2022-10-29T04:01:04.511Z,19.23
2022-10-29T04:03:33.398Z,27.02
2022-10-29T04:06:02.835Z,20.05
2022-10-29T04:08:30.386Z,25.23
2022-10-29T04:10:58.015Z,20.65
2022-10-29T04:13:25.502Z,17.48
2022-10-29T04:15:56.565Z,24.90
2022-10-29T04:18:24.759Z,27.23
2022-10-29T04:29:16.292Z,17.08
2022-10-29T04:31:43.686Z,22.57
2022-10-29T04:34:11.194Z,16.83
2022-10-29T04:36:38.590Z,17.77
2022-10-29T04:39:06.071Z,18.63
2022-10-29T04:41:33.547Z,21.02
2022-10-29T04:44:02.215Z,29.58
2022-10-29T04:46:29.756Z,21.60
2022-10-29T04:48:57.225Z,22.60
2022-10-29T04:51:26.371Z,22.50
2022-10-29T04:53:53.813Z,27.58
2022-10-29T04:56:21.299Z,27.80
2022-10-29T04:58:52.478Z,24.40
2022-10-29T05:01:20.392Z,35.42
2022-10-29T05:06:15.344Z,23.43
2022-10-29T05:08:42.898Z,30.48
2022-10-29T05:11:10.501Z,18.65
2022-10-29T05:13:38.093Z,19.08
2022-10-29T05:16:05.965Z,31.08
2022-10-29T05:18:33.388Z,23.35
2022-10-29T05:21:00.840Z,30.95
2022-10-29T05:23:28.322Z,21.60
2022-10-29T05:25:56.245Z,31.00
2022-10-29T05:28:24.667Z,21.65
2022-10-29T05:35:52.038Z,22.20
2022-10-29T05:38:19.801Z,27.25
2022-10-29T05:40:47.250Z,21.30
2022-10-29T05:43:16.625Z,23.93
2022-10-29T05:45:44.674Z,27.67
2022-10-29T05:48:14.500Z,25.48
2022-10-29T05:50:42.378Z,31.17
2022-10-29T05:53:12.513Z,23.75
2022-10-29T05:55:40.511Z,31.98
2022-10-29T05:58:13.203Z,31.02
2022-10-29T06:00:43.771Z,28.15
2022-10-29T06:03:16.688Z,31.98
2022-10-29T06:05:45.965Z,22.75
2022-10-29T06:08:13.597Z,24.15
2022-10-29T06:10:41.097Z,19.60
2022-10-29T06:13:13.700Z,31.75
2022-10-29T06:15:41.375Z,29.80
2022-10-29T06:18:09.792Z,21.15
2022-10-29T06:20:38.614Z,32.22
2022-10-29T06:23:06.563Z,30.02
2022-10-29T06:25:34.012Z,20.98
2022-10-29T06:28:15.148Z,20.00
2022-10-29T06:30:48.424Z,22.50
2022-10-29T06:33:17.394Z,25.92
2022-10-29T06:35:45.545Z,22.05
2022-10-29T06:38:13.359Z,18.40
2022-10-29T06:40:42.106Z,26.08
2022-10-29T06:43:11.340Z,29.70
2022-10-29T06:45:39.286Z,23.70
2022-10-29T06:48:07.139Z,24.58
2022-10-29T06:50:34.810Z,22.83
2022-10-29T06:53:04.582Z,24.75
2022-10-29T06:55:34.056Z,32.50
2022-10-29T06:58:04.261Z,25.77
2022-10-29T07:00:32.962Z,28.40
2022-10-29T07:03:01.001Z,30.67
2022-10-29T07:05:28.512Z,23.90
2022-10-29T07:08:00.500Z,23.08
2022-10-29T07:10:30.685Z,25.42
2022-10-29T07:13:01.069Z,26.63
2022-10-29T07:15:31.442Z,25.33
2022-10-29T07:18:04.106Z,33.00
2022-10-29T07:20:43.793Z,33.05
2022-10-29T07:23:14.227Z,31.40
2022-10-29T07:25:41.999Z,24.27
2022-10-29T07:28:18.128Z,27.23
2022-10-29T07:30:45.765Z,29.52
2022-10-29T07:33:15.354Z,38.85
2022-10-29T07:35:43.991Z,36.92
2022-10-29T07:38:12.548Z,30.42
2022-10-29T07:40:46.319Z,24.17
2022-10-29T07:43:14.468Z,28.60
2022-10-29T07:45:44.805Z,35.63
2022-10-29T07:48:12.356Z,28.15
2022-10-29T07:50:39.815Z,25.30
2022-10-29T07:53:07.944Z,28.70
2022-10-29T07:55:35.671Z,31.00
2022-10-29T07:58:09.760Z,29.65
2022-10-29T08:00:40.488Z,28.38
2022-10-29T08:03:09.986Z,21.05
2022-10-29T08:05:37.379Z,37.83
2022-10-29T08:08:05.706Z,35.78
2022-10-29T08:10:34.722Z,19.80
2022-10-29T08:13:04.365Z,21.85
2022-10-29T08:15:33.449Z,25.40
2022-10-29T08:18:09.269Z,24.88
2022-10-29T08:20:36.707Z,24.05
2022-10-29T08:23:04.136Z,20.35
2022-10-29T08:25:34.165Z,31.13
2022-10-29T08:28:03.751Z,29.10
2022-10-29T08:30:32.080Z,24.50
2022-10-29T08:33:00.504Z,20.50
2022-10-29T08:35:28.996Z,24.85
2022-10-29T08:41:01.236Z,26.20
2022-10-29T08:43:47.774Z,26.17
2022-10-29T08:46:24.218Z,24.35
2022-10-29T08:48:57.941Z,19.35
2022-10-29T08:51:38.890Z,23.05
2022-10-29T08:57:08.729Z,26.05
2022-10-29T08:59:41.289Z,22.38
2022-10-29T09:02:16.889Z,20.75
2022-10-29T09:04:49.717Z,26.15
2022-10-29T09:07:35.555Z,29.95
2022-10-29T09:10:11.810Z,17.88
2022-10-29T09:13:07.906Z,20.33
2022-10-29T09:15:44.614Z,29.83
2022-10-29T09:18:31.508Z,22.50
2022-10-29T09:21:13.765Z,22.45
2022-10-29T09:23:53.926Z,21.33
2022-10-29T09:26:24.319Z,28.45
2022-10-29T09:29:16.495Z,27.05
2022-10-29T09:31:53.950Z,28.13
2022-10-29T09:34:31.378Z,26.30
2022-10-29T09:37:01.912Z,20.98
2022-10-29T09:42:05.434Z,21.55
2022-10-29T09:44:39.024Z,21.80
2022-10-29T09:47:25.989Z,21.35
2022-10-29T09:50:19.740Z,21.25
2022-10-29T09:52:49.596Z,25.40
2022-10-29T09:55:41.701Z,21.23
2022-10-29T09:58:20.910Z,21.88
2022-10-29T10:00:48.544Z,23.60
2022-10-29T10:03:30.762Z,20.83
2022-10-29T10:05:59.776Z,27.77
2022-10-29T10:08:27.428Z,25.15
2022-10-29T10:11:04.981Z,21.00
2022-10-29T10:13:36.102Z,23.98
2022-10-29T10:16:06.048Z,21.52
2022-10-29T10:18:33.670Z,24.88
2022-10-29T10:21:08.683Z,28.67
2022-10-29T10:23:54.608Z,18.23
2022-10-29T10:26:39.846Z,24.30
2022-10-29T10:29:21.984Z,22.02
2022-10-29T10:32:16.252Z,22.50
2022-10-29T10:34:43.771Z,21.73
2022-10-29T10:37:11.238Z,26.52
2022-10-29T10:39:42.004Z,21.05
2022-10-29T10:42:26.741Z,26.67
2022-10-29T10:45:02.206Z,21.85
2022-10-29T10:47:36.939Z,20.92
2022-10-29T10:50:27.776Z,25.48
2022-10-29T10:52:58.362Z,27.50
2022-10-29T10:55:47.324Z,20.98
2022-10-29T10:58:37.170Z,18.50
2022-10-29T11:01:23.767Z,23.48
2022-10-29T11:04:16.224Z,19.77
2022-10-29T11:06:59.215Z,27.00
2022-10-29T11:09:54.499Z,26.20
2022-10-29T11:12:41.973Z,24.70
2022-10-29T11:15:15.315Z,27.13
2022-10-29T11:17:51.441Z,22.08
2022-10-29T11:20:28.806Z,22.90
2022-10-29T11:23:04.022Z,24.20
2022-10-29T11:25:45.209Z,20.05
2022-10-29T11:28:15.866Z,16.25
2022-10-29T11:30:51.643Z,22.17
2022-10-29T11:33:27.243Z,25.35
2022-10-29T11:36:01.783Z,17.90
2022-10-29T11:38:41.464Z,23.77
2022-10-29T11:41:46.738Z,24.75
2022-10-29T11:44:17.941Z,21.50
2022-10-29T11:47:13.985Z,20.90
2022-10-29T11:50:17.969Z,24.63
2022-10-29T11:52:45.381Z,20.25
2022-10-29T11:55:35.502Z,23.10
2022-10-29T11:58:16.246Z,21.10
2022-10-29T12:01:28.132Z,21.05
2022-10-29T12:04:03.068Z,22.67
2022-10-29T12:07:05.205Z,24.20
2022-10-29T12:09:53.699Z,25.27
2022-10-29T12:12:45.102Z,21.55
2022-10-29T12:15:32.405Z,20.55
2022-10-29T12:18:27.498Z,16.45
2022-10-29T12:21:12.951Z,18.60
2022-10-29T12:24:18.170Z,22.63
2022-10-29T12:29:49.737Z,25.98
2022-10-29T12:32:25.727Z,22.15
2022-10-29T12:35:02.966Z,19.38
2022-10-29T12:37:37.225Z,21.88
2022-10-29T12:40:28.159Z,25.45
2022-10-29T12:43:00.313Z,20.63
2022-10-29T12:45:48.071Z,24.48
2022-10-29T12:48:38.439Z,24.38
2022-10-29T12:51:22.697Z,19.88
2022-10-29T12:54:11.265Z,21.45
2022-10-29T12:56:39.304Z,19.95
2022-10-29T12:59:24.994Z,19.60
2022-10-29T13:07:27.661Z,18.83
2022-10-29T13:10:27.237Z,22.80
2022-10-29T13:13:16.640Z,20.13
2022-10-29T13:15:58.525Z,21.67
2022-10-29T13:18:37.640Z,27.45
2022-10-29T13:21:08.765Z,19.92
2022-10-29T13:23:37.727Z,26.70
2022-10-29T13:26:09.315Z,22.73
2022-10-29T13:28:36.680Z,21.30
2022-10-29T13:31:04.424Z,20.88
2022-10-29T13:33:31.784Z,25.15
2022-10-29T13:36:15.933Z,20.92
2022-10-29T13:39:04.437Z,23.50
2022-10-29T13:41:43.988Z,21.55
2022-10-29T13:44:23.398Z,22.00
2022-10-29T13:47:03.909Z,22.98
2022-10-29T13:49:42.387Z,22.88
2022-10-29T13:52:09.825Z,24.00
2022-10-29T13:54:50.595Z,22.10
2022-10-29T13:57:36.358Z,21.38
2022-10-29T14:00:12.065Z,25.63
2022-10-29T14:02:42.618Z,23.42
2022-10-29T14:05:16.976Z,21.40
2022-10-29T14:08:13.609Z,24.40
2022-10-29T14:10:45.048Z,26.60
2022-10-29T14:13:37.145Z,35.10
2022-10-29T14:16:09.678Z,33.10
2022-10-29T14:18:42.666Z,24.35
2022-10-29T14:21:23.668Z,25.20
2022-10-29T14:24:04.791Z,21.38
2022-10-29T14:26:35.724Z,31.33
2022-10-29T14:29:23.220Z,35.45
2022-10-29T14:32:19.236Z,28.77
2022-10-29T14:34:51.116Z,28.88
2022-10-29T14:37:48.598Z,32.50
2022-10-29T14:40:21.681Z,23.90
2022-10-29T14:42:55.770Z,26.73
2022-10-29T14:45:27.607Z,36.38
2022-10-29T14:48:00.093Z,33.90
2022-10-29T14:50:29.848Z,24.95
2022-10-29T14:53:01.409Z,30.63
2022-10-29T14:55:36.423Z,26.17
2022-10-29T14:58:12.179Z,26.45
2022-10-29T15:00:52.815Z,25.15
2022-10-29T15:03:23.602Z,30.65
2022-10-29T15:05:53.262Z,31.50
2022-10-29T15:08:29.071Z,25.58
2022-10-29T15:10:58.165Z,21.83
2022-10-29T15:13:29.204Z,22.70
2022-10-29T15:16:01.723Z,33.47
2022-10-29T15:18:30.631Z,24.85
2022-10-29T15:20:59.150Z,24.50
2022-10-29T15:23:29.660Z,27.35
2022-10-29T15:26:04.771Z,25.73
2022-10-29T15:28:38.642Z,23.83
2022-10-29T15:31:06.579Z,30.10
2022-10-29T15:33:36.870Z,35.30
2022-10-29T15:36:05.710Z,27.35
2022-10-29T15:38:34.312Z,23.45
2022-10-29T15:41:19.553Z,23.45
2022-10-29T15:43:58.525Z,27.75
2022-10-29T15:46:43.562Z,24.83
2022-10-29T15:49:17.319Z,24.02
2022-10-29T15:51:44.710Z,32.92
2022-10-29T15:54:16.426Z,31.05
2022-10-29T15:56:43.920Z,31.63
2022-10-29T15:59:13.959Z,30.63
2022-10-29T16:01:41.532Z,34.70
2022-10-29T16:04:09.828Z,31.15
2022-10-29T16:06:37.480Z,36.30
2022-10-29T16:09:05.042Z,34.95
2022-10-29T16:11:34.889Z,36.35
2022-10-29T16:14:02.347Z,36.53
2022-10-29T16:16:31.167Z,38.47
2022-10-29T16:18:58.598Z,34.28
2022-10-29T16:21:26.280Z,33.53
2022-10-29T16:23:54.067Z,26.10
2022-10-29T16:26:24.130Z,26.15
2022-10-29T16:28:53.203Z,30.73
2022-10-29T16:31:28.506Z,31.58
2022-10-29T16:34:01.473Z,32.40
2022-10-29T16:36:28.996Z,27.67
2022-10-29T16:38:56.485Z,31.83
2022-10-29T16:41:30.449Z,33.13
2022-10-29T16:43:58.056Z,32.13
2022-10-29T16:46:25.549Z,32.50
2022-10-29T16:48:52.989Z,30.92
2022-10-29T16:51:20.579Z,33.55
2022-10-29T16:53:47.971Z,36.25
2022-10-29T16:56:20.900Z,29.63
2022-10-29T16:58:48.389Z,27.80
2022-10-29T17:01:16.648Z,31.42
2022-10-29T17:03:44.487Z,28.75
2022-10-29T17:06:11.974Z,35.25
2022-10-29T17:08:39.429Z,34.10
2022-10-29T17:11:10.016Z,36.60
2022-10-29T17:13:38.174Z,29.10
2022-10-29T17:16:09.854Z,35.60
2022-10-29T17:18:37.284Z,28.23
2022-10-29T17:21:04.854Z,37.60
2022-10-29T17:23:33.062Z,41.45
2022-10-29T17:28:28.547Z,41.45
2022-10-29T17:30:56.007Z,32.28
2022-10-29T17:33:23.634Z,33.30
2022-10-29T17:36:01.748Z,34.80
2022-10-29T17:40:56.845Z,37.55
2022-10-29T17:43:27.029Z,33.42
2022-10-29T17:45:54.724Z,32.00
2022-10-29T17:48:24.101Z,33.05
2022-10-29T17:50:53.749Z,34.28
2022-10-29T17:53:22.278Z,41.58
2022-10-29T17:55:50.241Z,31.77
2022-10-29T17:58:19.721Z,29.13
2022-10-29T18:00:48.497Z,28.70
2022-10-29T18:03:16.181Z,36.75
2022-10-29T18:05:43.692Z,31.17
2022-10-29T18:08:11.222Z,35.42
2022-10-29T18:10:38.684Z,36.08
2022-10-29T18:13:06.419Z,36.92
2022-10-29T18:15:33.818Z,39.53
2022-10-29T18:18:01.296Z,37.33
2022-10-29T18:20:28.749Z,33.85
2022-10-29T18:22:56.881Z,48.53
2022-10-29T18:25:24.772Z,40.85
2022-10-29T18:27:55.613Z,34.65
2022-10-29T18:30:23.445Z,31.15
2022-10-29T18:32:51.026Z,41.00
2022-10-29T18:35:18.561Z,36.88
2022-10-29T18:37:46.968Z,41.55
2022-10-29T18:40:14.520Z,37.03
2022-10-29T18:42:41.956Z,36.85
2022-10-29T18:45:10.567Z,42.28
2022-10-29T18:47:38.017Z,39.47
2022-10-29T18:50:05.816Z,35.30
2022-10-29T18:52:33.644Z,45.35
2022-10-29T18:55:01.128Z,39.78
2022-10-29T18:57:28.746Z,40.85
2022-10-29T18:59:56.302Z,42.72
2022-10-29T19:02:24.020Z,37.58
2022-10-29T19:04:52.140Z,42.60
2022-10-29T19:07:19.570Z,42.58
2022-10-29T19:09:47.521Z,36.60
2022-10-29T19:12:15.295Z,42.05
2022-10-29T19:14:42.707Z,58.65
2022-10-29T19:17:10.195Z,56.30
2022-10-29T19:19:37.638Z,54.53
2022-10-29T19:22:05.437Z,48.25
2022-10-29T19:24:32.965Z,48.80
2022-10-29T19:27:00.462Z,47.10
2022-10-29T19:29:27.948Z,50.50
2022-10-29T19:31:55.346Z,55.42
2022-10-29T19:34:22.798Z,45.88
2022-10-29T19:36:50.211Z,45.03
2022-10-29T19:39:17.706Z,46.90
2022-10-29T19:41:45.177Z,36.58
2022-10-29T19:44:12.912Z,43.50
2022-10-29T19:46:40.450Z,44.83
2022-10-29T19:49:07.986Z,42.40
2022-10-29T19:51:35.538Z,44.63
2022-10-29T19:54:04.066Z,36.65
2022-10-29T19:56:31.524Z,46.05
2022-10-29T19:58:58.975Z,31.33
2022-10-29T20:01:26.626Z,45.13
2022-10-29T20:03:54.300Z,40.22
2022-10-29T20:06:21.845Z,40.00
2022-10-29T20:08:49.386Z,38.85
2022-10-29T20:11:17.181Z,43.97
2022-10-29T20:13:44.870Z,43.90
2022-10-29T20:16:22.259Z,47.85
2022-10-29T20:18:50.459Z,44.95
2022-10-29T20:21:18.537Z,41.50
2022-10-29T20:23:46.284Z,41.72
2022-10-29T20:26:13.798Z,46.35
2022-10-29T20:28:41.419Z,47.90
2022-10-29T20:31:18.218Z,51.00
2022-10-29T20:33:50.322Z,40.22
2022-10-29T20:36:18.598Z,42.92
2022-10-29T20:38:50.010Z,54.72
2022-10-29T20:41:18.348Z,45.58
2022-10-29T20:43:50.462Z,52.78
2022-10-29T20:46:17.891Z,43.33
2022-10-29T20:48:45.222Z,36.97
2022-10-29T20:51:13.469Z,41.43
2022-10-29T20:56:11.573Z,43.47
2022-10-29T20:58:42.579Z,46.25
2022-10-29T21:01:13.012Z,52.13
2022-10-29T21:03:40.791Z,47.05
2022-10-29T21:06:13.987Z,51.60
2022-10-29T21:08:45.366Z,46.92
2022-10-29T21:11:14.400Z,57.65
2022-10-29T21:13:42.130Z,42.15
2022-10-29T21:16:17.260Z,51.03
2022-10-29T21:18:46.947Z,44.95
2022-10-29T21:21:15.010Z,36.70
2022-10-29T21:23:42.529Z,45.13
2022-10-29T21:26:16.444Z,51.22
2022-10-29T21:28:43.951Z,48.45
2022-10-29T21:31:11.550Z,45.47
2022-10-29T21:33:39.075Z,46.55
2022-10-29T21:36:07.352Z,50.88
2022-10-29T21:38:34.813Z,46.22
2022-10-29T21:41:02.258Z,46.55
2022-10-29T21:43:29.778Z,40.95
2022-10-29T21:45:57.326Z,35.83
2022-10-29T21:48:29.142Z,46.50
2022-10-29T21:51:16.197Z,45.67
2022-10-29T21:53:43.745Z,51.50
2022-10-29T21:56:13.956Z,42.72
2022-10-29T21:58:41.961Z,49.53
2022-10-29T22:01:15.429Z,52.05
2022-10-29T22:03:46.439Z,42.55
2022-10-29T22:06:22.424Z,39.95
2022-10-29T22:08:54.933Z,44.22
2022-10-29T22:11:23.597Z,39.45
2022-10-29T22:13:52.313Z,36.92
2022-10-29T22:16:20.620Z,45.88
2022-10-29T22:18:49.833Z,42.35
2022-10-29T22:21:19.990Z,42.75
2022-10-29T22:23:49.622Z,34.55
2022-10-29T22:26:18.955Z,49.83
2022-10-29T22:28:50.107Z,40.17
2022-10-29T22:31:20.171Z,48.03
2022-10-29T22:33:48.403Z,36.65
2022-10-29T22:38:44.971Z,36.95
2022-10-29T22:41:14.864Z,35.35
2022-10-29T22:43:43.249Z,40.15
2022-10-29T22:46:13.214Z,39.38
2022-10-29T22:48:40.870Z,36.00
2022-10-29T22:51:11.877Z,34.13
2022-10-29T22:53:39.362Z,40.83
2022-10-29T22:56:07.365Z,41.72
2022-10-29T22:58:34.841Z,39.33
2022-10-29T23:01:09.861Z,44.63
2022-10-29T23:03:39.125Z,38.50
2022-10-29T23:06:08.677Z,32.13
2022-10-29T23:08:36.689Z,36.80
2022-10-29T23:11:10.416Z,36.28
2022-10-29T23:13:37.840Z,30.15
2022-10-29T23:16:05.815Z,33.47
2022-10-29T23:18:33.484Z,33.65
2022-10-29T23:21:02.015Z,30.35
2022-10-29T23:23:29.938Z,37.38
2022-10-29T23:26:01.719Z,34.75
2022-10-29T23:28:38.214Z,32.40
2022-10-29T23:31:10.119Z,28.63
2022-10-29T23:33:37.545Z,30.70
2022-10-29T23:36:08.948Z,29.23
2022-10-29T23:38:36.419Z,29.85
2022-10-29T23:41:04.167Z,32.08
2022-10-29T23:43:31.837Z,29.00
2022-10-29T23:45:59.297Z,33.08
2022-10-29T23:48:26.778Z,39.58
2022-10-29T23:50:54.491Z,34.03
2022-10-29T23:53:22.604Z,32.28
2022-10-29T23:55:50.150Z,43.72
2022-10-29T23:58:17.764Z,25.00
